sensor_id;sensor_type;location;lat;lon;timestamp;P1;durP1;ratioP1;P2;durP2;ratioP2
7989;SDS011;4040;42.848;23.034;2022-12-07T00:00:12;43.17;;;23.07;;
7989;SDS011;4040;42.848;23.034;2022-12-07T00:06:03;37.87;;;21.37;;
7989;SDS011;4040;42.848;23.034;2022-12-07T00:11:53;35.67;;;21.40;;
7989;SDS011;4040;42.848;23.034;2022-12-07T00:17:41;38.90;;;17.60;;
7989;SDS011;4040;42.848;23.034;2022-12-07T00:27:53;50.77;;;23.97;;
7989;SDS011;4040;42.848;23.034;2022-12-07T00:33:43;34.00;;;16.73;;
7989;SDS011;4040;42.848;23.034;2022-12-07T00:39:32;32.27;;;16.53;;
7989;SDS011;4040;42.848;23.034;2022-12-07T00:45:22;32.13;;;15.97;;
7989;SDS011;4040;42.848;23.034;2022-12-07T00:51:11;32.80;;;16.33;;
7989;SDS011;4040;42.848;23.034;2022-12-07T00:57:01;29.13;;;14.43;;
7989;SDS011;4040;42.848;23.034;2022-12-07T01:02:51;28.73;;;14.23;;
7989;SDS011;4040;42.848;23.034;2022-12-07T01:08:40;33.80;;;16.77;;
7989;SDS011;4040;42.848;23.034;2022-12-07T01:14:29;39.10;;;20.70;;
7989;SDS011;4040;42.848;23.034;2022-12-07T01:20:19;29.73;;;16.10;;
7989;SDS011;4040;42.848;23.034;2022-12-07T01:30:30;32.70;;;16.30;;
7989;SDS011;4040;42.848;23.034;2022-12-07T01:36:21;32.43;;;17.90;;
7989;SDS011;4040;42.848;23.034;2022-12-07T01:42:11;32.47;;;14.93;;
7989;SDS011;4040;42.848;23.034;2022-12-07T01:48:00;29.77;;;14.03;;
7989;SDS011;4040;42.848;23.034;2022-12-07T01:53:51;32.50;;;15.30;;
7989;SDS011;4040;42.848;23.034;2022-12-07T01:59:40;30.00;;;17.07;;
7989;SDS011;4040;42.848;23.034;2022-12-07T02:05:30;38.97;;;16.00;;
7989;SDS011;4040;42.848;23.034;2022-12-07T02:11:21;26.80;;;15.37;;
7989;SDS011;4040;42.848;23.034;2022-12-07T02:17:12;32.13;;;16.13;;
7989;SDS011;4040;42.848;23.034;2022-12-07T02:29:31;37.87;;;18.03;;
7989;SDS011;4040;42.848;23.034;2022-12-07T02:35:24;60.80;;;26.53;;
7989;SDS011;4040;42.848;23.034;2022-12-07T02:41:17;27.33;;;13.70;;
7989;SDS011;4040;42.848;23.034;2022-12-07T02:47:13;34.80;;;15.57;;
7989;SDS011;4040;42.848;23.034;2022-12-07T02:53:05;41.37;;;18.23;;
7989;SDS011;4040;42.848;23.034;2022-12-07T02:58:57;42.47;;;19.20;;
7989;SDS011;4040;42.848;23.034;2022-12-07T03:04:59;38.43;;;19.33;;
7989;SDS011;4040;42.848;23.034;2022-12-07T03:10:57;47.97;;;23.40;;
7989;SDS011;4040;42.848;23.034;2022-12-07T03:16:50;28.13;;;14.07;;
7989;SDS011;4040;42.848;23.034;2022-12-07T03:22:44;29.17;;;12.87;;
7989;SDS011;4040;42.848;23.034;2022-12-07T03:32:58;40.17;;;19.43;;
7989;SDS011;4040;42.848;23.034;2022-12-07T03:38:52;29.60;;;15.10;;
7989;SDS011;4040;42.848;23.034;2022-12-07T03:44:45;29.03;;;14.00;;
7989;SDS011;4040;42.848;23.034;2022-12-07T03:50:37;30.00;;;14.17;;
7989;SDS011;4040;42.848;23.034;2022-12-07T03:56:33;28.17;;;16.47;;
7989;SDS011;4040;42.848;23.034;2022-12-07T04:02:23;41.33;;;18.13;;
7989;SDS011;4040;42.848;23.034;2022-12-07T04:08:14;39.10;;;18.17;;
7989;SDS011;4040;42.848;23.034;2022-12-07T04:14:04;36.20;;;19.63;;
7989;SDS011;4040;42.848;23.034;2022-12-07T04:20:08;37.80;;;17.30;;
7989;SDS011;4040;42.848;23.034;2022-12-07T04:25:58;35.80;;;19.77;;
7989;SDS011;4040;42.848;23.034;2022-12-07T04:36:10;33.13;;;18.93;;
7989;SDS011;4040;42.848;23.034;2022-12-07T04:41:59;39.93;;;21.00;;
7989;SDS011;4040;42.848;23.034;2022-12-07T04:47:49;35.90;;;18.43;;
7989;SDS011;4040;42.848;23.034;2022-12-07T04:53:39;33.33;;;17.57;;
7989;SDS011;4040;42.848;23.034;2022-12-07T04:59:27;37.90;;;19.70;;
7989;SDS011;4040;42.848;23.034;2022-12-07T05:05:16;34.40;;;17.87;;
7989;SDS011;4040;42.848;23.034;2022-12-07T05:11:06;34.43;;;18.63;;
7989;SDS011;4040;42.848;23.034;2022-12-07T05:16:56;34.70;;;18.27;;
7989;SDS011;4040;42.848;23.034;2022-12-07T05:22:44;42.13;;;24.93;;
7989;SDS011;4040;42.848;23.034;2022-12-07T05:28:34;41.30;;;26.53;;
7989;SDS011;4040;42.848;23.034;2022-12-07T05:38:44;41.23;;;21.87;;
7989;SDS011;4040;42.848;23.034;2022-12-07T05:44:35;34.37;;;20.70;;
7989;SDS011;4040;42.848;23.034;2022-12-07T05:50:24;32.93;;;20.03;;
7989;SDS011;4040;42.848;23.034;2022-12-07T05:56:12;40.80;;;21.33;;
7989;SDS011;4040;42.848;23.034;2022-12-07T06:02:03;36.47;;;18.87;;
7989;SDS011;4040;42.848;23.034;2022-12-07T06:07:53;34.60;;;18.93;;
7989;SDS011;4040;42.848;23.034;2022-12-07T06:13:42;39.57;;;20.30;;
7989;SDS011;4040;42.848;23.034;2022-12-07T06:19:32;43.23;;;22.37;;
7989;SDS011;4040;42.848;23.034;2022-12-07T06:25:21;45.43;;;24.13;;
7989;SDS011;4040;42.848;23.034;2022-12-07T06:31:10;39.17;;;21.17;;
7989;SDS011;4040;42.848;23.034;2022-12-07T06:41:22;41.87;;;23.63;;
7989;SDS011;4040;42.848;23.034;2022-12-07T06:47:11;53.23;;;27.87;;
7989;SDS011;4040;42.848;23.034;2022-12-07T06:52:59;40.70;;;20.60;;
7989;SDS011;4040;42.848;23.034;2022-12-07T06:58:49;56.43;;;26.73;;
7989;SDS011;4040;42.848;23.034;2022-12-07T07:04:38;50.20;;;25.27;;
7989;SDS011;4040;42.848;23.034;2022-12-07T07:10:26;42.20;;;22.57;;
7989;SDS011;4040;42.848;23.034;2022-12-07T07:16:16;38.47;;;19.40;;
7989;SDS011;4040;42.848;23.034;2022-12-07T07:22:05;43.93;;;21.23;;
7989;SDS011;4040;42.848;23.034;2022-12-07T07:27:53;42.53;;;26.47;;
7989;SDS011;4040;42.848;23.034;2022-12-07T07:33:44;38.67;;;19.83;;
7989;SDS011;4040;42.848;23.034;2022-12-07T07:43:55;34.00;;;13.83;;
7989;SDS011;4040;42.848;23.034;2022-12-07T07:49:45;21.00;;;11.77;;
7989;SDS011;4040;42.848;23.034;2022-12-07T07:55:33;21.87;;;12.33;;
7989;SDS011;4040;42.848;23.034;2022-12-07T08:01:22;20.30;;;9.63;;
7989;SDS011;4040;42.848;23.034;2022-12-07T08:07:13;28.40;;;13.63;;
7989;SDS011;4040;42.848;23.034;2022-12-07T08:13:03;19.67;;;9.90;;
7989;SDS011;4040;42.848;23.034;2022-12-07T08:19:00;20.30;;;11.27;;
7989;SDS011;4040;42.848;23.034;2022-12-07T08:24:51;17.47;;;10.50;;
7989;SDS011;4040;42.848;23.034;2022-12-07T08:30:39;32.70;;;14.17;;
7989;SDS011;4040;42.848;23.034;2022-12-07T08:36:28;21.57;;;11.00;;
7989;SDS011;4040;42.848;23.034;2022-12-07T08:46:40;25.30;;;14.90;;
7989;SDS011;4040;42.848;23.034;2022-12-07T08:52:34;30.63;;;16.83;;
7989;SDS011;4040;42.848;23.034;2022-12-07T08:58:25;23.60;;;13.67;;
7989;SDS011;4040;42.848;23.034;2022-12-07T09:04:15;27.27;;;12.63;;
7989;SDS011;4040;42.848;23.034;2022-12-07T09:10:04;26.93;;;13.70;;
7989;SDS011;4040;42.848;23.034;2022-12-07T09:15:54;25.57;;;11.90;;
7989;SDS011;4040;42.848;23.034;2022-12-07T09:21:44;24.47;;;13.03;;
7989;SDS011;4040;42.848;23.034;2022-12-07T09:27:33;24.43;;;13.30;;
7989;SDS011;4040;42.848;23.034;2022-12-07T09:33:22;26.73;;;13.47;;
7989;SDS011;4040;42.848;23.034;2022-12-07T09:39:12;25.20;;;14.33;;
7989;SDS011;4040;42.848;23.034;2022-12-07T09:49:23;39.87;;;20.07;;
7989;SDS011;4040;42.848;23.034;2022-12-07T09:55:16;36.80;;;17.87;;
7989;SDS011;4040;42.848;23.034;2022-12-07T10:01:11;32.77;;;15.83;;
7989;SDS011;4040;42.848;23.034;2022-12-07T10:07:01;32.70;;;19.03;;
7989;SDS011;4040;42.848;23.034;2022-12-07T10:12:56;30.90;;;15.53;;
7989;SDS011;4040;42.848;23.034;2022-12-07T10:18:48;26.13;;;14.47;;
7989;SDS011;4040;42.848;23.034;2022-12-07T10:24:38;27.80;;;12.40;;
7989;SDS011;4040;42.848;23.034;2022-12-07T10:30:31;19.87;;;12.27;;
7989;SDS011;4040;42.848;23.034;2022-12-07T10:36:22;27.43;;;13.03;;
7989;SDS011;4040;42.848;23.034;2022-12-07T10:42:16;29.57;;;17.23;;
7989;SDS011;4040;42.848;23.034;2022-12-07T10:52:42;23.20;;;12.00;;
7989;SDS011;4040;42.848;23.034;2022-12-07T10:58:44;25.40;;;11.87;;
7989;SDS011;4040;42.848;23.034;2022-12-07T11:04:49;24.87;;;11.53;;
7989;SDS011;4040;42.848;23.034;2022-12-07T11:10:50;24.90;;;13.13;;
7989;SDS011;4040;42.848;23.034;2022-12-07T11:16:48;25.50;;;13.70;;
7989;SDS011;4040;42.848;23.034;2022-12-07T11:22:44;22.97;;;12.63;;
7989;SDS011;4040;42.848;23.034;2022-12-07T11:28:44;23.03;;;13.00;;
7989;SDS011;4040;42.848;23.034;2022-12-07T11:34:55;30.07;;;14.77;;
7989;SDS011;4040;42.848;23.034;2022-12-07T11:40:55;27.97;;;13.40;;
7989;SDS011;4040;42.848;23.034;2022-12-07T11:47:02;71.50;;;20.50;;
7989;SDS011;4040;42.848;23.034;2022-12-07T11:52:57;26.43;;;14.60;;
7989;SDS011;4040;42.848;23.034;2022-12-07T11:58:51;23.73;;;13.40;;
7989;SDS011;4040;42.848;23.034;2022-12-07T12:04:49;27.93;;;15.73;;
7989;SDS011;4040;42.848;23.034;2022-12-07T12:10:47;26.57;;;15.43;;
7989;SDS011;4040;42.848;23.034;2022-12-07T12:16:58;31.23;;;14.77;;
7989;SDS011;4040;42.848;23.034;2022-12-07T12:23:05;27.70;;;15.20;;
7989;SDS011;4040;42.848;23.034;2022-12-07T12:29:00;28.87;;;15.87;;
7989;SDS011;4040;42.848;23.034;2022-12-07T12:35:02;31.00;;;16.20;;
7989;SDS011;4040;42.848;23.034;2022-12-07T12:41:11;29.33;;;14.77;;
7989;SDS011;4040;42.848;23.034;2022-12-07T12:47:59;22.77;;;12.77;;
7989;SDS011;4040;42.848;23.034;2022-12-07T12:53:47;25.73;;;14.93;;
7989;SDS011;4040;42.848;23.034;2022-12-07T12:59:38;23.47;;;14.70;;
7989;SDS011;4040;42.848;23.034;2022-12-07T13:05:29;64.90;;;29.63;;
7989;SDS011;4040;42.848;23.034;2022-12-07T13:11:18;119.43;;;59.80;;
7989;SDS011;4040;42.848;23.034;2022-12-07T13:23:38;26.00;;;14.70;;
7989;SDS011;4040;42.848;23.034;2022-12-07T13:29:42;33.30;;;16.97;;
7989;SDS011;4040;42.848;23.034;2022-12-07T13:35:32;70.93;;;31.93;;
7989;SDS011;4040;42.848;23.034;2022-12-07T13:41:25;26.40;;;14.23;;
7989;SDS011;4040;42.848;23.034;2022-12-07T13:47:16;27.93;;;15.13;;
7989;SDS011;4040;42.848;23.034;2022-12-07T13:53:10;25.70;;;13.93;;
7989;SDS011;4040;42.848;23.034;2022-12-07T13:59:03;28.03;;;13.27;;
7989;SDS011;4040;42.848;23.034;2022-12-07T14:05:05;61.93;;;28.70;;
7989;SDS011;4040;42.848;23.034;2022-12-07T14:10:55;67.77;;;29.03;;
7989;SDS011;4040;42.848;23.034;2022-12-07T14:16:56;158.00;;;60.37;;
7989;SDS011;4040;42.848;23.034;2022-12-07T14:22:53;67.20;;;30.93;;
7989;SDS011;4040;42.848;23.034;2022-12-07T14:28:43;181.57;;;81.77;;
7989;SDS011;4040;42.848;23.034;2022-12-07T14:34:33;37.07;;;22.20;;
7989;SDS011;4040;42.848;23.034;2022-12-07T14:40:22;55.10;;;30.10;;
7989;SDS011;4040;42.848;23.034;2022-12-07T14:46:13;45.20;;;29.70;;
7989;SDS011;4040;42.848;23.034;2022-12-07T14:52:04;72.00;;;40.27;;
7989;SDS011;4040;42.848;23.034;2022-12-07T14:57:56;80.57;;;44.53;;
7989;SDS011;4040;42.848;23.034;2022-12-07T15:11:28;180.30;;;84.07;;
7989;SDS011;4040;42.848;23.034;2022-12-07T15:17:17;127.53;;;59.43;;
7989;SDS011;4040;42.848;23.034;2022-12-07T15:23:06;143.07;;;70.87;;
7989;SDS011;4040;42.848;23.034;2022-12-07T15:28:57;121.00;;;64.50;;
7989;SDS011;4040;42.848;23.034;2022-12-07T15:34:45;162.80;;;79.17;;
7989;SDS011;4040;42.848;23.034;2022-12-07T15:40:34;150.67;;;66.23;;
7989;SDS011;4040;42.848;23.034;2022-12-07T15:46:28;103.43;;;48.20;;
7989;SDS011;4040;42.848;23.034;2022-12-07T15:52:18;117.03;;;50.87;;
7989;SDS011;4040;42.848;23.034;2022-12-07T15:58:07;81.23;;;39.87;;
7989;SDS011;4040;42.848;23.034;2022-12-07T16:03:58;60.23;;;31.47;;
7989;SDS011;4040;42.848;23.034;2022-12-07T16:06:25;84.60;;;46.20;;
7989;SDS011;4040;42.848;23.034;2022-12-07T16:12:14;64.17;;;30.00;;
7989;SDS011;4040;42.848;23.034;2022-12-07T16:18:03;70.80;;;35.50;;
7989;SDS011;4040;42.848;23.034;2022-12-07T16:23:53;66.10;;;33.87;;
7989;SDS011;4040;42.848;23.034;2022-12-07T16:29:44;50.20;;;27.93;;
7989;SDS011;4040;42.848;23.034;2022-12-07T16:35:33;66.07;;;35.30;;
7989;SDS011;4040;42.848;23.034;2022-12-07T16:41:23;72.10;;;34.57;;
7989;SDS011;4040;42.848;23.034;2022-12-07T16:47:11;90.00;;;41.33;;
7989;SDS011;4040;42.848;23.034;2022-12-07T16:53:00;157.13;;;61.80;;
7989;SDS011;4040;42.848;23.034;2022-12-07T16:58:50;169.67;;;64.43;;
7989;SDS011;4040;42.848;23.034;2022-12-07T17:04:38;96.53;;;45.00;;
7989;SDS011;4040;42.848;23.034;2022-12-07T17:10:28;124.67;;;54.77;;
7989;SDS011;4040;42.848;23.034;2022-12-07T17:16:19;133.43;;;63.50;;
7989;SDS011;4040;42.848;23.034;2022-12-07T17:22:07;263.30;;;109.70;;
7989;SDS011;4040;42.848;23.034;2022-12-07T17:27:58;271.83;;;121.13;;
7989;SDS011;4040;42.848;23.034;2022-12-07T17:33:48;304.37;;;133.27;;
7989;SDS011;4040;42.848;23.034;2022-12-07T17:39:37;360.33;;;156.00;;
7989;SDS011;4040;42.848;23.034;2022-12-07T17:45:26;251.03;;;106.23;;
7989;SDS011;4040;42.848;23.034;2022-12-07T17:51:16;234.37;;;100.50;;
7989;SDS011;4040;42.848;23.034;2022-12-07T17:57:22;340.03;;;139.40;;
7989;SDS011;4040;42.848;23.034;2022-12-07T18:03:11;323.77;;;138.60;;
7989;SDS011;4040;42.848;23.034;2022-12-07T18:13:22;280.37;;;124.80;;
7989;SDS011;4040;42.848;23.034;2022-12-07T18:19:24;236.90;;;103.13;;
7989;SDS011;4040;42.848;23.034;2022-12-07T18:25:13;264.13;;;106.20;;
7989;SDS011;4040;42.848;23.034;2022-12-07T18:31:03;181.70;;;79.90;;
7989;SDS011;4040;42.848;23.034;2022-12-07T18:36:52;192.37;;;80.03;;
7989;SDS011;4040;42.848;23.034;2022-12-07T18:42:40;135.50;;;59.30;;
7989;SDS011;4040;42.848;23.034;2022-12-07T18:48:31;194.87;;;70.80;;
7989;SDS011;4040;42.848;23.034;2022-12-07T18:54:19;158.43;;;66.80;;
7989;SDS011;4040;42.848;23.034;2022-12-07T19:00:08;220.73;;;86.03;;
7989;SDS011;4040;42.848;23.034;2022-12-07T19:05:59;115.10;;;53.53;;
7989;SDS011;4040;42.848;23.034;2022-12-07T19:16:15;86.23;;;41.73;;
7989;SDS011;4040;42.848;23.034;2022-12-07T19:22:05;94.63;;;44.67;;
7989;SDS011;4040;42.848;23.034;2022-12-07T19:27:55;125.80;;;56.23;;
7989;SDS011;4040;42.848;23.034;2022-12-07T19:33:44;159.53;;;55.60;;
7989;SDS011;4040;42.848;23.034;2022-12-07T19:39:34;139.53;;;57.17;;
7989;SDS011;4040;42.848;23.034;2022-12-07T19:45:23;294.33;;;121.80;;
7989;SDS011;4040;42.848;23.034;2022-12-07T19:51:14;199.40;;;83.87;;
7989;SDS011;4040;42.848;23.034;2022-12-07T19:57:06;216.37;;;87.60;;
7989;SDS011;4040;42.848;23.034;2022-12-07T20:03:00;252.83;;;103.53;;
7989;SDS011;4040;42.848;23.034;2022-12-07T20:08:49;414.03;;;192.53;;
7989;SDS011;4040;42.848;23.034;2022-12-07T20:19:01;314.00;;;129.50;;
7989;SDS011;4040;42.848;23.034;2022-12-07T20:24:50;270.20;;;109.63;;
7989;SDS011;4040;42.848;23.034;2022-12-07T20:30:44;126.43;;;60.93;;
7989;SDS011;4040;42.848;23.034;2022-12-07T20:36:35;253.87;;;100.17;;
7989;SDS011;4040;42.848;23.034;2022-12-07T20:42:24;206.53;;;87.17;;
7989;SDS011;4040;42.848;23.034;2022-12-07T20:48:25;188.53;;;82.93;;
7989;SDS011;4040;42.848;23.034;2022-12-07T20:54:15;101.93;;;49.23;;
7989;SDS011;4040;42.848;23.034;2022-12-07T21:00:05;103.83;;;47.10;;
7989;SDS011;4040;42.848;23.034;2022-12-07T21:05:54;152.40;;;68.53;;
7989;SDS011;4040;42.848;23.034;2022-12-07T21:11:45;86.57;;;42.57;;
7989;SDS011;4040;42.848;23.034;2022-12-07T21:21:55;95.63;;;48.20;;
7989;SDS011;4040;42.848;23.034;2022-12-07T21:27:45;96.33;;;46.70;;
7989;SDS011;4040;42.848;23.034;2022-12-07T21:33:34;107.97;;;50.73;;
7989;SDS011;4040;42.848;23.034;2022-12-07T21:39:23;90.17;;;41.37;;
7989;SDS011;4040;42.848;23.034;2022-12-07T21:45:13;118.37;;;53.73;;
7989;SDS011;4040;42.848;23.034;2022-12-07T21:51:05;169.63;;;59.47;;
7989;SDS011;4040;42.848;23.034;2022-12-07T21:56:55;205.90;;;80.27;;
7989;SDS011;4040;42.848;23.034;2022-12-07T22:02:45;184.93;;;72.70;;
7989;SDS011;4040;42.848;23.034;2022-12-07T22:08:54;175.30;;;52.40;;
7989;SDS011;4040;42.848;23.034;2022-12-07T22:14:43;155.33;;;41.77;;
7989;SDS011;4040;42.848;23.034;2022-12-07T22:24:52;160.87;;;59.10;;
7989;SDS011;4040;42.848;23.034;2022-12-07T22:30:41;84.27;;;34.33;;
7989;SDS011;4040;42.848;23.034;2022-12-07T22:36:29;87.93;;;39.33;;
7989;SDS011;4040;42.848;23.034;2022-12-07T22:42:20;76.97;;;33.10;;
7989;SDS011;4040;42.848;23.034;2022-12-07T22:48:08;55.17;;;27.30;;
7989;SDS011;4040;42.848;23.034;2022-12-07T22:53:57;94.47;;;33.27;;
7989;SDS011;4040;42.848;23.034;2022-12-07T22:59:49;158.37;;;47.63;;
7989;SDS011;4040;42.848;23.034;2022-12-07T23:05:39;92.50;;;30.63;;
7989;SDS011;4040;42.848;23.034;2022-12-07T23:11:29;36.53;;;19.47;;
7989;SDS011;4040;42.848;23.034;2022-12-07T23:17:38;41.03;;;22.00;;
7989;SDS011;4040;42.848;23.034;2022-12-07T23:27:48;63.40;;;29.77;;
7989;SDS011;4040;42.848;23.034;2022-12-07T23:33:39;73.00;;;33.07;;
7989;SDS011;4040;42.848;23.034;2022-12-07T23:39:28;42.67;;;21.83;;
7989;SDS011;4040;42.848;23.034;2022-12-07T23:45:17;35.23;;;18.37;;
7989;SDS011;4040;42.848;23.034;2022-12-07T23:51:08;41.50;;;21.77;;
7989;SDS011;4040;42.848;23.034;2022-12-07T23:56:57;47.37;;;23.33;;
